Terminal Aerodrome Forecast
Issued by NWS Mt. Holly, NJ

Home | Current Version | Previous Version | Text Only | Print | Product List | Glossary On
Versions: 1 2 3 4 5 6 7 8 9 10 11 12 13 14 15 16 17 18 19 20 21
000
FTUS41 KPHI 302340 AAB
TAFRDG
TAF AMD
KRDG 302340Z 0100/0124 10008KT P6SM OVC030
     FM010300 11009KT P6SM OVC010
     FM010600 14007KT 4SM BR OVC008
     FM010800 14005KT 1SM BR OVC006
     FM011300 VRB03KT P6SM OVC020
     FM011800 20014KT P6SM BKN035
     FM011900 20014G22KT P6SM BKN030 PROB30 0121/0122 4SM -TSRA
      OVC015CB=

USA.gov is the U.S. government's official web portal to all federal, state and local government web resources and services.